EDT,Max TemperatureF,Mean TemperatureF,Min TemperatureF,Max Dew PointF,MeanDew PointF,Min DewpointF,Max Humidity, Mean Humidity, Min Humidity, Max Sea Level PressureIn, Mean Sea Level PressureIn, Min Sea Level PressureIn, Max VisibilityMiles, Mean VisibilityMiles, Min VisibilityMiles, Max Wind SpeedMPH, Mean Wind SpeedMPH, Max Gust SpeedMPH,PrecipitationIn, CloudCover, Events, WindDirDegrees
2012-10-1,69,56,44,53,47,43,93,84,50,29.98,29.88,29.82,10,9,1,7,1,,0.00,0,,215
2012-10-2,61,57,54,58,56,52,96,92,86,30.05,30.01,29.97,10,5,2,7,1,,0.64,8,Rain,34
2012-10-3,70,64,59,68,62,57,100,93,87,30.12,30.06,30.01,10,5,2,6,2,,0.20,8,Rain,42
2012-10-4,73,66,59,68,65,58,100,94,78,30.15,30.11,30.06,10,3,0,5,0,,0.10,7,Fog-Rain-Thunderstorm,239
2012-10-5,77,64,53,61,57,53,100,87,56,30.09,30.02,29.93,10,5,0,8,1,,0.01,1,Fog,198
2012-10-6,70,58,44,60,53,42,100,89,67,30.01,29.88,29.78,10,5,0,12,2,23,0.01,3,Fog-Rain,249
2012-10-7,53,46,39,44,41,37,100,82,61,30.12,30.07,30.01,10,8,0,5,1,,0.13,5,Fog-Rain,230
2012-10-8,53,44,36,45,40,35,100,87,61,30.27,30.21,30.11,10,5,0,5,0,,0.00,4,Fog,255
2012-10-9,57,51,45,50,47,43,93,82,70,30.24,30.18,30.09,10,10,9,7,3,,0.01,8,Rain,42
2012-10-10,64,58,50,55,51,36,100,86,52,30.08,29.93,29.80,10,6,1,12,3,17,0.18,7,Rain,18
2012-10-11,59,49,39,38,33,29,86,58,32,30.20,30.12,29.98,10,10,10,6,3,16,0.01,0,,289
2012-10-12,54,44,32,40,32,23,93,71,42,30.45,30.20,30.07,10,9,5,10,2,26,0.02,2,Rain,329
2012-10-13,53,40,26,33,26,22,92,64,30,30.52,30.44,30.30,10,10,10,7,1,,0.00,0,,202
2012-10-14,68,56,43,52,46,34,86,69,55,30.25,30.09,29.92,10,10,10,13,4,23,0.00,3,,218
2012-10-15,69,60,52,63,57,47,100,88,70,29.90,29.71,29.65,10,6,2,9,2,76,0.53,6,Rain,219
2012-10-16,55,46,36,47,37,34,93,66,44,29.94,29.82,29.70,10,10,10,13,4,23,0.00,3,,323
2012-10-17,63,48,32,43,37,30,96,76,41,30.02,29.97,29.93,10,9,6,7,1,,0.00,0,,173
2012-10-18,66,50,35,54,45,33,100,79,50,30.04,29.99,29.93,10,9,7,15,2,23,0.00,4,,117
2012-10-19,68,62,57,65,61,54,100,93,80,29.91,29.75,29.65,10,4,0,15,3,24,2.11,8,Fog-Rain-Thunderstorm,134
2012-10-20,66,54,41,59,49,37,100,83,45,29.85,29.71,29.65,10,5,0,8,1,,0.01,3,Fog,218
2012-10-21,64,50,37,42,38,35,96,68,37,30.05,29.96,29.86,10,10,10,8,2,20,0.00,1,,256
2012-10-22,68,54,41,43,40,38,89,64,37,30.12,30.07,30.03,10,10,10,9,3,17,0.00,0,,287
2012-10-23,57,49,41,52,48,39,96,90,77,30.14,30.11,30.08,10,7,2,5,0,,0.13,6,Rain,53
2012-10-24,59,54,51,54,52,50,100,92,82,30.20,30.14,30.10,10,5,1,8,3,,0.02,8,Rain,36
2012-10-25,60,56,53,55,53,52,100,92,78,30.28,30.23,30.20,10,4,2,5,0,,0.03,8,,162
2012-10-26,62,58,55,56,54,54,94,88,75,30.23,30.18,30.12,10,6,2,4,0,,0.01,8,,-1
2012-10-27,63,58,54,55,54,52,94,86,72,30.11,30.01,29.94,9,6,3,6,1,,0.00,7,,28
2012-10-28,57,55,53,52,47,40,89,73,57,29.93,29.82,29.70,10,10,7,17,9,29,0.00,6,,43
2012-10-29,62,58,53,57,51,44,94,83,69,29.69,29.02,28.66,10,4,1,38,22,61,0.86,8,Rain,37
2012-10-30,,,,,,,,,,,,,,,,,,,,,,
2012-10-31,,,,,,,,,,,,,,,,,,,,,,